createdAt,value
2023-05-02T00:01:45.864Z,34.91
2023-05-02T00:04:12.640Z,34.51
2023-05-02T00:06:39.874Z,36.10
2023-05-02T00:09:06.503Z,34.94
2023-05-02T00:11:39.234Z,34.53
2023-05-02T00:14:18.371Z,35.16
2023-05-02T00:17:04.653Z,34.73
2023-05-02T00:19:31.295Z,34.77
2023-05-02T00:21:58.919Z,35.02
2023-05-02T00:24:26.892Z,34.59
2023-05-02T00:26:53.524Z,34.78
2023-05-02T00:29:20.071Z,34.81
2023-05-02T00:31:46.653Z,34.34
2023-05-02T00:34:13.211Z,34.46
2023-05-02T00:36:39.773Z,34.16
2023-05-02T00:39:06.403Z,34.92
2023-05-02T00:41:34.194Z,34.70
2023-05-02T00:44:12.845Z,34.89
2023-05-02T00:47:01.143Z,34.83
2023-05-02T00:49:28.588Z,37.10
2023-05-02T00:51:55.532Z,34.72
2023-05-02T00:54:22.219Z,34.49
2023-05-02T00:56:49.407Z,34.41
2023-05-02T00:59:16.692Z,34.22
2023-05-02T01:02:05.347Z,34.37
2023-05-02T01:05:01.101Z,34.55
2023-05-02T01:07:46.475Z,34.76
2023-05-02T01:10:48.823Z,34.66
2023-05-02T01:13:32.749Z,34.39
2023-05-02T01:16:13.372Z,35.18
2023-05-02T01:18:43.594Z,34.68
2023-05-02T01:21:12.198Z,34.87
2023-05-02T01:24:00.715Z,35.74
2023-05-02T01:26:37.285Z,36.37
2023-05-02T01:29:07.146Z,37.15
2023-05-02T01:31:41.874Z,35.47
2023-05-02T01:34:10.778Z,35.68
2023-05-02T01:36:43.156Z,35.92
2023-05-02T01:39:13.461Z,36.28
2023-05-02T01:41:53.456Z,36.65
2023-05-02T01:44:24.330Z,37.19
2023-05-02T01:46:57.807Z,37.29
2023-05-02T01:49:26.893Z,37.06
2023-05-02T01:51:53.534Z,36.53
2023-05-02T01:54:24.731Z,36.88
2023-05-02T01:56:52.405Z,37.80
2023-05-02T01:59:22.486Z,37.18
2023-05-02T02:01:51.709Z,37.57
2023-05-02T02:04:20.011Z,37.32
2023-05-02T02:06:52.091Z,36.76
2023-05-02T02:09:18.957Z,37.69
2023-05-02T02:12:06.329Z,37.78
2023-05-02T02:15:13.082Z,38.56
2023-05-02T02:20:17.002Z,37.70
2023-05-02T02:22:44.506Z,38.36
2023-05-02T02:25:14.343Z,38.53
2023-05-02T02:27:41.714Z,39.96
2023-05-02T02:30:11.959Z,39.52
2023-05-02T02:32:38.611Z,40.06
2023-05-02T02:35:06.056Z,40.12
2023-05-02T02:37:35.319Z,40.09
2023-05-02T02:40:13.028Z,40.44
2023-05-02T02:43:08.958Z,41.82
2023-05-02T02:46:51.254Z,40.45
2023-05-02T02:50:15.676Z,40.38
2023-05-02T02:52:55.203Z,40.98
2023-05-02T02:55:35.435Z,40.58
2023-05-02T02:58:20.683Z,40.43
2023-05-02T03:00:49.748Z,40.43
2023-05-02T03:03:18.062Z,40.97
2023-05-02T03:05:45.577Z,42.42
2023-05-02T03:08:13.669Z,41.54
2023-05-02T03:10:40.309Z,41.48
2023-05-02T03:13:06.821Z,40.96
2023-05-02T03:16:24.392Z,41.17
2023-05-02T03:18:51.176Z,42.06
2023-05-02T03:21:17.710Z,41.63
2023-05-02T03:23:44.294Z,41.30
2023-05-02T03:26:11.121Z,42.41
2023-05-02T03:28:37.658Z,42.51
2023-05-02T03:31:04.384Z,42.06
2023-05-02T03:36:33.527Z,41.98
2023-05-02T03:39:00.118Z,41.88
2023-05-02T03:41:26.694Z,42.47
2023-05-02T03:43:53.246Z,42.04
2023-05-02T03:46:19.852Z,41.22
2023-05-02T03:49:17.026Z,41.04
2023-05-02T03:52:17.887Z,41.04
2023-05-02T03:54:50.961Z,40.62
2023-05-02T03:57:18.104Z,40.78
2023-05-02T03:59:45.830Z,41.17
2023-05-02T04:02:12.574Z,41.51
2023-05-02T04:04:40.772Z,41.08
2023-05-02T04:07:08.042Z,41.40
2023-05-02T04:12:09.943Z,40.98
2023-05-02T04:14:36.470Z,41.01
2023-05-02T04:17:03.182Z,41.30
2023-05-02T04:19:29.777Z,41.34
2023-05-02T04:21:56.296Z,42.69
2023-05-02T04:24:26.110Z,41.65
2023-05-02T04:27:15.454Z,41.58
2023-05-02T04:29:51.152Z,43.38
2023-05-02T04:32:17.713Z,43.02
2023-05-02T04:34:44.332Z,42.63
2023-05-02T04:37:11.179Z,43.07
2023-05-02T04:39:40.757Z,43.13
2023-05-02T04:42:07.319Z,43.69
2023-05-02T04:44:34.267Z,43.37
2023-05-02T04:47:04.616Z,44.59
2023-05-02T04:49:32.206Z,43.61
2023-05-02T04:51:59.142Z,43.92
2023-05-02T04:54:25.695Z,43.40
2023-05-02T04:56:52.269Z,43.14
2023-05-02T04:59:18.815Z,42.89
2023-05-02T05:01:45.627Z,43.03
2023-05-02T05:04:12.363Z,42.32
2023-05-02T05:06:39.051Z,42.84
2023-05-02T05:09:06.075Z,42.89
2023-05-02T05:11:32.684Z,42.44
2023-05-02T05:13:59.300Z,42.35
2023-05-02T05:16:25.962Z,42.37
2023-05-02T05:18:53.921Z,42.33
2023-05-02T05:21:20.860Z,41.81
2023-05-02T05:23:47.727Z,41.56
2023-05-02T05:26:15.784Z,42.08
2023-05-02T05:28:43.573Z,42.05
2023-05-02T05:31:13.036Z,41.62
2023-05-02T05:33:40.713Z,42.59
2023-05-02T05:36:08.718Z,41.43
2023-05-02T05:38:35.801Z,41.83
2023-05-02T05:41:02.808Z,42.83
2023-05-02T05:43:29.941Z,42.52
2023-05-02T05:45:56.810Z,41.30
2023-05-02T05:48:24.430Z,41.27
2023-05-02T05:50:52.380Z,40.66
2023-05-02T05:53:19.905Z,40.73
2023-05-02T05:55:46.469Z,41.52
2023-05-02T05:58:13.456Z,40.82
2023-05-02T06:00:40.290Z,40.51
2023-05-02T06:03:09.597Z,40.64
2023-05-02T06:05:36.979Z,40.42
2023-05-02T06:08:03.718Z,40.09
2023-05-02T06:10:31.618Z,40.67
2023-05-02T06:12:58.541Z,40.48
2023-05-02T06:15:25.119Z,40.44
2023-05-02T06:17:52.340Z,40.65
2023-05-02T06:20:19.125Z,40.16
2023-05-02T06:22:46.190Z,40.51
2023-05-02T06:25:12.731Z,40.02
2023-05-02T06:27:39.258Z,40.99
2023-05-02T06:30:06.691Z,40.30
2023-05-02T06:32:33.323Z,39.96
2023-05-02T06:34:59.999Z,40.35
2023-05-02T06:37:26.594Z,40.05
2023-05-02T06:39:53.159Z,41.10
2023-05-02T06:42:19.751Z,39.90
2023-05-02T06:44:46.321Z,41.19
2023-05-02T06:47:13.044Z,40.63
2023-05-02T06:49:39.728Z,41.12
2023-05-02T06:52:06.341Z,41.18
2023-05-02T06:55:42.660Z,39.69
2023-05-02T06:58:27.943Z,40.34
2023-05-02T07:00:54.528Z,41.91
2023-05-02T07:03:21.183Z,38.82
2023-05-02T07:05:47.745Z,38.17
2023-05-02T07:08:14.338Z,38.11
2023-05-02T07:10:53.188Z,37.75
2023-05-02T07:13:19.834Z,38.21
2023-05-02T07:15:46.420Z,36.97
2023-05-02T07:18:13.034Z,37.70
2023-05-02T07:20:41.419Z,38.03
2023-05-02T07:23:09.343Z,36.94
2023-05-02T07:25:42.119Z,38.00
2023-05-02T07:28:08.712Z,38.12
2023-05-02T07:30:35.321Z,36.99
2023-05-02T07:33:01.894Z,37.90
2023-05-02T07:35:48.618Z,37.26
2023-05-02T07:38:37.032Z,38.45
2023-05-02T07:41:03.770Z,36.61
2023-05-02T07:43:30.359Z,38.45
2023-05-02T07:45:57.123Z,38.31
2023-05-02T07:48:25.005Z,38.82
2023-05-02T07:50:53.748Z,38.63
2023-05-02T07:53:20.277Z,37.51
2023-05-02T07:55:47.066Z,37.37
2023-05-02T07:58:13.614Z,37.68
2023-05-02T08:00:40.152Z,37.54
2023-05-02T08:03:07.704Z,37.12
2023-05-02T08:05:34.393Z,36.89
2023-05-02T08:08:02.050Z,36.17
2023-05-02T08:10:28.642Z,35.52
2023-05-02T08:12:55.519Z,36.79
2023-05-02T08:15:22.047Z,36.36
2023-05-02T08:17:48.641Z,38.09
2023-05-02T08:20:15.739Z,35.41
2023-05-02T08:22:42.341Z,34.82
2023-05-02T08:25:09.252Z,35.94
2023-05-02T08:27:35.847Z,35.85
2023-05-02T08:30:02.830Z,34.88
2023-05-02T08:32:30.184Z,36.96
2023-05-02T08:34:57.192Z,35.47
2023-05-02T08:37:23.786Z,35.57
2023-05-02T08:39:50.373Z,34.44
2023-05-02T08:42:16.930Z,35.37
2023-05-02T08:44:43.542Z,35.33
2023-05-02T08:47:13.729Z,35.08
2023-05-02T08:49:41.306Z,34.44
2023-05-02T08:52:09.370Z,34.57
2023-05-02T08:54:51.514Z,34.22
2023-05-02T08:57:18.106Z,33.80
2023-05-02T08:59:44.680Z,35.05
2023-05-02T09:02:39.627Z,34.86
2023-05-02T09:05:57.086Z,34.45
2023-05-02T09:08:43.611Z,34.93
2023-05-02T09:11:11.524Z,35.52
2023-05-02T09:13:43.037Z,35.48
2023-05-02T09:16:11.773Z,33.10
2023-05-02T09:18:49.909Z,33.90
2023-05-02T09:21:21.851Z,34.26
2023-05-02T09:24:01.755Z,34.11
2023-05-02T09:26:32.778Z,34.70
2023-05-02T09:29:02.282Z,33.42
2023-05-02T09:31:54.379Z,34.45
2023-05-02T09:34:20.622Z,34.15
2023-05-02T09:36:52.020Z,34.04
2023-05-02T09:41:54.695Z,35.36
2023-05-02T09:44:27.119Z,33.63
2023-05-02T09:46:55.633Z,34.03
2023-05-02T09:49:42.588Z,34.83
2023-05-02T09:52:17.828Z,33.68
2023-05-02T09:55:25.359Z,34.34
2023-05-02T09:58:04.542Z,33.46
2023-05-02T10:00:40.556Z,34.04
2023-05-02T10:03:08.604Z,33.74
2023-05-02T10:05:39.842Z,35.06
2023-05-02T10:08:32.720Z,35.14
2023-05-02T10:11:00.842Z,34.67
2023-05-02T10:13:32.198Z,34.32
2023-05-02T10:16:01.680Z,33.81
2023-05-02T10:18:32.960Z,34.32
2023-05-02T10:21:06.285Z,33.74
2023-05-02T10:23:53.420Z,33.49
2023-05-02T10:26:23.563Z,33.67
2023-05-02T10:28:51.252Z,32.99
2023-05-02T10:31:18.597Z,33.39
2023-05-02T10:34:13.581Z,33.98
2023-05-02T10:37:27.222Z,33.56
2023-05-02T10:40:00.937Z,33.58
2023-05-02T10:42:29.791Z,34.07
2023-05-02T10:44:56.830Z,34.29
2023-05-02T10:47:27.399Z,33.76
2023-05-02T10:49:59.837Z,33.16
2023-05-02T10:52:32.886Z,35.03
2023-05-02T11:05:22.898Z,34.63
2023-05-02T11:07:49.776Z,33.58
2023-05-02T11:10:46.340Z,33.34
2023-05-02T11:13:51.464Z,32.55
2023-05-02T11:16:18.105Z,34.81
2023-05-02T11:19:01.026Z,34.34
2023-05-02T11:21:29.521Z,33.26
2023-05-02T11:24:33.758Z,34.39
2023-05-02T11:27:38.545Z,32.94
2023-05-02T11:30:09.583Z,33.25
2023-05-02T11:32:45.475Z,33.24
2023-05-02T11:35:20.729Z,32.36
2023-05-02T11:37:58.079Z,32.03
2023-05-02T11:40:25.721Z,31.55
2023-05-02T11:45:37.612Z,32.31
2023-05-02T11:48:07.806Z,32.96
2023-05-02T11:50:46.654Z,31.53
2023-05-02T11:53:24.981Z,32.17
2023-05-02T11:55:54.417Z,31.15
2023-05-02T12:04:30.346Z,30.42
2023-05-02T12:06:57.988Z,30.47
2023-05-02T12:09:27.523Z,30.09
2023-05-02T12:11:54.845Z,29.57
2023-05-02T12:14:29.722Z,30.51
2023-05-02T12:19:44.884Z,30.98
2023-05-02T12:22:13.385Z,30.09
2023-05-02T12:24:41.252Z,30.17
2023-05-02T12:27:15.326Z,30.92
2023-05-02T12:29:46.042Z,29.76
2023-05-02T12:32:28.077Z,29.61
2023-05-02T12:35:47.506Z,29.46
2023-05-02T12:38:23.742Z,29.04
2023-05-02T12:40:57.449Z,29.61
2023-05-02T12:43:24.132Z,30.64
2023-05-02T12:45:53.861Z,29.91
2023-05-02T12:48:27.993Z,30.42
2023-05-02T12:50:55.477Z,30.22
2023-05-02T12:53:45.795Z,29.94
2023-05-02T12:56:13.426Z,30.45
2023-05-02T12:58:44.100Z,30.07
2023-05-02T13:01:11.216Z,30.42
2023-05-02T13:03:38.695Z,30.09
2023-05-02T13:06:05.817Z,29.91
2023-05-02T13:08:34.449Z,29.67
2023-05-02T13:11:04.867Z,30.42
2023-05-02T13:13:32.597Z,29.43
2023-05-02T13:15:59.116Z,29.63
2023-05-02T13:18:25.909Z,30.25
2023-05-02T13:20:52.535Z,30.62
2023-05-02T13:23:19.192Z,30.82
2023-05-02T13:25:45.765Z,30.67
2023-05-02T13:28:12.325Z,31.17
2023-05-02T13:30:38.978Z,31.16
2023-05-02T13:33:05.710Z,30.79
2023-05-02T13:35:33.501Z,30.90
2023-05-02T13:38:01.806Z,30.89
2023-05-02T13:40:28.542Z,30.37
2023-05-02T13:42:55.205Z,31.04
2023-05-02T13:45:21.860Z,30.72
2023-05-02T13:47:48.471Z,31.23
2023-05-02T13:50:15.144Z,31.28
2023-05-02T13:52:41.804Z,31.46
2023-05-02T13:55:21.672Z,31.11
2023-05-02T14:00:43.053Z,31.02
2023-05-02T14:03:13.846Z,31.05
2023-05-02T14:05:54.467Z,31.01
2023-05-02T14:08:23.492Z,31.12
2023-05-02T14:10:56.258Z,30.84
2023-05-02T14:13:26.372Z,31.53
2023-05-02T14:16:01.837Z,31.06
2023-05-02T14:18:29.494Z,31.47
2023-05-02T14:21:04.893Z,31.06
2023-05-02T14:23:36.957Z,31.29
2023-05-02T14:26:13.421Z,31.21
2023-05-02T14:28:50.658Z,31.69
2023-05-02T14:31:21.002Z,31.31
2023-05-02T14:33:50.235Z,31.23
2023-05-02T14:36:18.964Z,31.30
2023-05-02T14:38:50.913Z,30.57
2023-05-02T14:41:28.371Z,31.40
2023-05-02T14:43:58.411Z,31.50
2023-05-02T14:46:37.123Z,31.65
2023-05-02T14:49:11.531Z,31.13
2023-05-02T14:51:39.600Z,31.35
2023-05-02T14:54:07.174Z,31.74
2023-05-02T14:56:33.936Z,31.51
2023-05-02T14:59:00.792Z,31.21
2023-05-02T15:01:27.510Z,31.44
2023-05-02T15:04:05.057Z,31.17
2023-05-02T15:06:33.046Z,31.31
2023-05-02T15:08:59.923Z,31.05
2023-05-02T15:11:26.769Z,31.41
2023-05-02T15:13:53.348Z,31.38
2023-05-02T15:16:20.136Z,30.67
2023-05-02T15:18:46.886Z,31.36
2023-05-02T15:21:13.503Z,31.31
2023-05-02T15:23:40.292Z,31.11
2023-05-02T15:26:06.900Z,31.31
2023-05-02T15:28:33.555Z,31.12
2023-05-02T15:31:00.167Z,30.80
2023-05-02T15:33:26.782Z,30.52
2023-05-02T15:35:55.545Z,30.05
2023-05-02T15:38:22.572Z,30.80
2023-05-02T15:40:57.172Z,30.62
2023-05-02T15:43:24.862Z,30.88
2023-05-02T15:45:55.517Z,30.66
2023-05-02T15:48:23.447Z,31.11
2023-05-02T15:50:50.830Z,31.07
2023-05-02T15:53:18.112Z,31.69
2023-05-02T15:55:45.969Z,32.17
2023-05-02T15:58:13.612Z,31.92
2023-05-02T16:00:40.409Z,32.83
2023-05-02T16:03:07.110Z,32.73
2023-05-02T16:05:34.450Z,33.09
2023-05-02T16:08:01.589Z,33.44
2023-05-02T16:10:28.761Z,33.96
2023-05-02T16:12:55.482Z,33.70
2023-05-02T16:15:22.813Z,33.97
2023-05-02T16:17:50.551Z,34.03
2023-05-02T16:20:18.112Z,34.04
2023-05-02T16:22:48.560Z,34.48
2023-05-02T16:25:16.405Z,34.36
2023-05-02T16:27:43.723Z,34.73
2023-05-02T16:30:10.940Z,34.86
2023-05-02T16:32:37.855Z,35.02
2023-05-02T16:35:07.401Z,35.51
2023-05-02T16:37:35.330Z,35.78
2023-05-02T16:40:04.332Z,36.01
2023-05-02T16:42:31.399Z,35.87
2023-05-02T16:44:58.024Z,36.19
2023-05-02T16:47:24.779Z,36.14
2023-05-02T16:49:59.036Z,36.31
2023-05-02T16:52:26.619Z,36.90
2023-05-02T16:54:54.089Z,37.23
2023-05-02T16:57:21.574Z,36.86
2023-05-02T16:59:50.247Z,37.22
2023-05-02T17:02:18.933Z,38.56
2023-05-02T17:04:45.731Z,41.73
2023-05-02T17:07:12.670Z,41.60
2023-05-02T17:09:41.129Z,42.09
2023-05-02T17:12:11.012Z,42.91
2023-05-02T17:14:42.510Z,42.69
2023-05-02T17:17:09.996Z,42.37
2023-05-02T17:19:37.007Z,42.29
2023-05-02T17:22:05.247Z,42.52
2023-05-02T17:24:32.458Z,42.14
2023-05-02T17:26:59.431Z,41.88
2023-05-02T17:29:26.467Z,42.74
2023-05-02T17:31:53.061Z,43.06
2023-05-02T17:34:25.620Z,42.99
2023-05-02T17:36:52.264Z,42.94
2023-05-02T17:39:18.899Z,43.76
2023-05-02T17:41:45.459Z,43.63
2023-05-02T17:44:12.105Z,43.75
2023-05-02T17:46:38.899Z,44.13
2023-05-02T17:49:06.607Z,44.48
2023-05-02T17:51:33.848Z,44.95
2023-05-02T17:54:00.988Z,44.96
2023-05-02T17:56:28.610Z,44.83
2023-05-02T17:58:55.640Z,44.94
2023-05-02T18:01:22.523Z,44.73
2023-05-02T18:03:50.021Z,45.02
2023-05-02T18:06:17.785Z,45.28
2023-05-02T18:08:45.186Z,45.25
2023-05-02T18:11:18.630Z,45.22
2023-05-02T18:13:45.877Z,45.64
2023-05-02T18:16:14.048Z,45.44
2023-05-02T18:18:41.207Z,45.82
2023-05-02T18:21:09.440Z,46.51
2023-05-02T18:23:36.023Z,46.95
2023-05-02T18:26:02.787Z,47.86
2023-05-02T18:28:29.522Z,48.43
2023-05-02T18:30:56.076Z,48.86
2023-05-02T18:33:22.622Z,49.69
2023-05-02T18:35:51.481Z,49.66
2023-05-02T18:38:18.390Z,49.70
2023-05-02T18:40:45.696Z,50.96
2023-05-02T18:43:12.382Z,51.22
2023-05-02T18:45:39.007Z,52.56
2023-05-02T18:48:05.960Z,53.46
2023-05-02T18:50:32.712Z,53.69
2023-05-02T18:52:59.306Z,54.23
2023-05-02T18:55:25.920Z,55.12
2023-05-02T18:57:52.533Z,55.88
2023-05-02T19:00:20.552Z,56.37
2023-05-02T19:02:47.839Z,55.13
2023-05-02T19:05:15.111Z,55.43
2023-05-02T19:07:42.331Z,56.09
2023-05-02T19:10:10.966Z,56.61
2023-05-02T19:12:37.696Z,57.60
2023-05-02T19:15:05.103Z,58.16
2023-05-02T19:17:31.838Z,59.11
2023-05-02T19:19:58.610Z,58.75
2023-05-02T19:22:27.697Z,60.14
2023-05-02T19:24:57.522Z,60.97
2023-05-02T19:27:24.544Z,60.80
2023-05-02T19:29:54.267Z,61.56
2023-05-02T19:32:25.425Z,62.77
2023-05-02T19:34:52.092Z,63.15
2023-05-02T19:37:18.692Z,62.64
2023-05-02T19:39:45.247Z,62.27
2023-05-02T19:42:11.774Z,62.96
2023-05-02T19:44:38.376Z,63.40
2023-05-02T19:47:04.946Z,63.89
2023-05-02T19:49:31.661Z,64.39
2023-05-02T19:51:59.244Z,64.11
2023-05-02T19:54:25.997Z,63.97
2023-05-02T19:56:52.541Z,64.00
2023-05-02T19:59:19.184Z,64.59
2023-05-02T20:01:46.760Z,63.54
2023-05-02T20:04:13.671Z,63.08
2023-05-02T20:06:40.304Z,62.58
2023-05-02T20:09:07.062Z,62.11
2023-05-02T20:11:33.584Z,61.89
2023-05-02T20:14:00.426Z,61.28
2023-05-02T20:16:27.368Z,61.48
2023-05-02T20:18:54.213Z,61.99
2023-05-02T20:21:20.807Z,61.75
2023-05-02T20:26:22.689Z,61.65
2023-05-02T20:28:49.332Z,62.05
2023-05-02T20:31:15.960Z,61.50
2023-05-02T20:33:45.782Z,62.18
2023-05-02T20:36:14.254Z,64.09
2023-05-02T20:39:33.480Z,65.07
2023-05-02T20:42:34.494Z,66.35
2023-05-02T20:45:02.718Z,66.91
2023-05-02T20:47:30.185Z,67.20
2023-05-02T20:49:57.166Z,68.01
2023-05-02T20:52:23.956Z,69.35
2023-05-02T20:54:53.938Z,68.98
2023-05-02T20:57:20.676Z,69.22
2023-05-02T20:59:47.309Z,69.78
2023-05-02T21:02:14.182Z,70.19
2023-05-02T21:04:42.225Z,70.16
2023-05-02T21:07:08.828Z,70.46
2023-05-02T21:09:35.452Z,71.16
2023-05-02T21:14:37.272Z,70.51
2023-05-02T21:17:03.870Z,70.30
2023-05-02T21:19:37.451Z,69.94
2023-05-02T21:26:26.769Z,69.25
2023-05-02T21:43:12.661Z,68.90
2023-05-02T21:45:46.827Z,69.55
2023-05-02T21:48:14.561Z,69.93
2023-05-02T21:50:42.524Z,70.13
2023-05-02T21:53:09.826Z,70.14
2023-05-02T21:55:37.662Z,69.59
2023-05-02T21:58:22.580Z,69.76
2023-05-02T22:01:09.110Z,70.32
2023-05-02T22:03:36.625Z,69.70
2023-05-02T22:06:06.955Z,69.53
2023-05-02T22:08:33.851Z,69.88
2023-05-02T22:11:00.447Z,69.68
2023-05-02T22:13:27.119Z,69.34
2023-05-02T22:18:29.245Z,69.06
2023-05-02T22:20:58.530Z,68.97
2023-05-02T22:23:25.114Z,68.71
2023-05-02T22:25:51.730Z,68.59
2023-05-02T22:28:18.368Z,67.62
2023-05-02T22:30:44.986Z,67.30
2023-05-02T22:33:27.297Z,67.15
2023-05-02T22:36:13.929Z,67.60
2023-05-02T22:38:41.697Z,67.56
2023-05-02T22:46:18.937Z,68.76
2023-05-02T23:27:50.883Z,71.11
2023-05-02T23:30:17.471Z,70.70
2023-05-02T23:32:45.103Z,71.09
2023-05-02T23:35:12.387Z,70.92
2023-05-02T23:37:41.217Z,70.58
2023-05-02T23:40:13.925Z,70.45
2023-05-02T23:42:40.959Z,70.85
2023-05-02T23:45:08.721Z,71.42
2023-05-02T23:47:36.151Z,71.07
2023-05-02T23:50:22.187Z,71.12
2023-05-02T23:53:03.471Z,70.76
2023-05-02T23:55:30.341Z,71.12
2023-05-02T23:57:56.912Z,70.99
